Home > Products > Valid Products > TAF

000
FTUS43 KFGF 290520
TAFGFK
TAF
KGFK 290520Z 2906/3006 VRB03KT P6SM -RA OVC035
     FM290800 34004KT P6SM BKN015
     FM291600 30012KT P6SM FEW200=



000
FTUS43 KFGF 290520
TAFFAR
TAF
KFAR 290520Z 2906/3006 VRB03KT P6SM BKN050
     FM290800 VRB03KT P6SM BKN015
     FM291600 30011KT P6SM FEW200=



000
FTUS43 KFGF 290219 AAA
TAFFAR
TAF AMD
KFAR 290219Z 2902/2924 31004KT P6SM BKN025
     FM291600 30011KT P6SM FEW200=



000
FTUS43 KFGF 281720
TAFGFK
TAF
KGFK 281720Z 2818/2918 02010KT P6SM VCSH SCT030 BKN080
     FM290200 03006KT P6SM BKN045
     FM290600 VRB03KT P6SM BKN015
     FM291300 30006KT P6SM BKN015=



000
FTUS43 KFGF 280520
TAFFAR
TAF
KFAR 280520Z 2806/2906 VRB03KT P6SM SCT025 BKN080
     FM280900 VRB03KT P6SM BKN025
     FM281200 VRB03KT P6SM OVC015
     FM281400 02006KT P6SM OVC020
     FM281700 36009KT P6SM VCSH BKN035
     FM290400 29004KT P6SM VCSH BKN120
     FM290500 30004KT P6SM BKN130=



000
FTUS43 KFGF 280520
TAFGFK
TAF
KGFK 280520Z 2806/2906 VRB03KT P6SM BKN100
     FM280900 00000KT P6SM OVC015
     FM281400 34004KT P6SM OVC015
     FM281700 34007KT P6SM VCSH BKN030
     FM281800 34007KT P6SM VCSH BKN035
     FM290300 34006KT P6SM BKN060=



000
FTUS43 KFGF 271120
TAFGFK
TAF
KGFK 271120Z 2712/2812 VRB06KT P6SM SCT120
     FM272000 VRB06KT P6SM BKN120
     FM280900 36005KT P6SM BKN060=



000
FTUS43 KFGF 271120
TAFFAR
TAF
KFAR 271120Z 2712/2812 VRB06KT P6SM SCT120
     FM271900 VRB06KT P6SM BKN120=



000
FTUS43 KFGF 270520
TAFFAR
TAF
KFAR 270520Z 2706/2806 VRB03KT P6SM VCTS SCT120CB BKN250
     FM270800 VRB03KT P6SM SCT120 BKN250
     FM271400 12005KT P6SM BKN200
     FM271600 12005KT P6SM VCSH BKN080=



000
FTUS43 KFGF 261706 AAE
TAFFAR
TAF AMD
KFAR 261706Z 2617/2712 25012KT P6SM BKN035
     FM270100 25006KT P6SM SCT200
     FM270500 VRB04KT P6SM SCT200=



000
FTUS43 KFGF 261603 AAD
TAFFAR
TAF AMD
KFAR 261603Z 2616/2712 26008KT P6SM BKN013
     FM261700 24008KT P6SM BKN018
     FM261900 25012KT P6SM BKN035
     FM270100 25006KT P6SM SCT200
     FM270500 VRB04KT P6SM SCT200=



000
FTUS43 KFGF 261538 AAC
TAFFAR
TAF AMD
KFAR 261538Z 2616/2712 24006KT P6SM BKN007
     FM261700 24008KT P6SM BKN018
     FM261900 25012KT P6SM BKN035
     FM270100 25006KT P6SM SCT200
     FM270500 VRB04KT P6SM SCT200=



000
FTUS43 KFGF 261409 AAB
TAFFAR
TAF AMD
KFAR 261409Z 2614/2712 26010KT P6SM BKN008
     FM270100 25006KT P6SM SCT200
     FM270500 VRB04KT P6SM SCT200=



    US Dept of Commerce
    National Oceanic and Atmospheric Administration
    National Weather Service
    1325 East West Highway
    Silver Spring, MD 20910
    Page Author: NWS Internet Services Team
Disclaimer
Information Quality
Credits
Glossary
Privacy Policy
Freedom of Information Act (FOIA)
About Us
Career Opportunities